QTR14W EDDH-OTHH
Flight info
| Callsign | QTR14W |
|---|---|
| Flight time | N/A |
| Altitude | 39000 |
| Route | RAMAR6C/05 RAMAR DCT PABMI DCT RADEL DCT GERGA DCT SUBIX DCT BABKO DCT BADOR DCT MAXOV/N0482F410 DCT ARTAT UP975 ERGUN UL124 KONUK UM860 RENGI UT253 OTKEP UM688 KEDIM DCT SISIN UM688 SIDAD P975 LONOS L703 HAYYA |
| Aircraft | A359/H-SDE2E3GHIJ3J4J5LM1ORWXY/LB1D1 |
Departure
| Time | 2026-05-07 12:29 |
|---|---|
| Airport | Hamburg Helmut Schmidt Airport (EDDH) |
Arrival
| Time | N/A |
|---|---|
| Airport | Hamad International Airport (OTHH) |
| Time | Latitude | Longitude | Altitude | Speed | Heading |
|---|---|---|---|---|---|
| 2026-05-07 12:06 | 53.62893 | 10.00211 | 55 ft | 0 kts | 124° |
| 2026-05-07 12:16 | 53.62898 | 10.00198 | 47 ft | 2 kts | 124° |
| 2026-05-07 12:16 | 53.62908 | 10.00175 | 47 ft | 2 kts | 126° |
| 2026-05-07 12:16 | 53.62917 | 10.00153 | 48 ft | 2 kts | 128° |
| 2026-05-07 12:16 | 53.62928 | 10.00132 | 47 ft | 2 kts | 133° |
| 2026-05-07 12:17 | 53.62940 | 10.00113 | 47 ft | 2 kts | 146° |
| 2026-05-07 12:17 | 53.62955 | 10.00103 | 47 ft | 2 kts | 192° |
| 2026-05-07 12:17 | 53.62965 | 10.00109 | 47 ft | 1 kts | 211° |
| 2026-05-07 12:17 | 53.62966 | 10.00110 | 47 ft | 0 kts | 211° |
| 2026-05-07 12:20 | 53.62964 | 10.00108 | 47 ft | 1 kts | 211° |
| 2026-05-07 12:21 | 53.62940 | 10.00085 | 47 ft | 7 kts | 210° |
| 2026-05-07 12:21 | 53.62879 | 10.00029 | 51 ft | 13 kts | 205° |
| 2026-05-07 12:21 | 53.62838 | 9.99994 | 47 ft | 0 kts | 208° |
| 2026-05-07 12:22 | 53.62835 | 9.99991 | 54 ft | 2 kts | 208° |
| 2026-05-07 12:22 | 53.62784 | 9.99944 | 48 ft | 14 kts | 209° |
| 2026-05-07 12:23 | 53.62676 | 9.99837 | 52 ft | 21 kts | 220° |
| 2026-05-07 12:23 | 53.62625 | 9.99640 | 53 ft | 18 kts | 259° |
| 2026-05-07 12:23 | 53.62599 | 9.99414 | 49 ft | 22 kts | 259° |
| 2026-05-07 12:23 | 53.62567 | 9.99135 | 53 ft | 27 kts | 259° |
| 2026-05-07 12:24 | 53.62531 | 9.98814 | 50 ft | 25 kts | 259° |
| 2026-05-07 12:24 | 53.62505 | 9.98588 | 48 ft | 15 kts | 259° |
| 2026-05-07 12:24 | 53.62480 | 9.98370 | 53 ft | 20 kts | 259° |
| 2026-05-07 12:24 | 53.62446 | 9.98157 | 48 ft | 12 kts | 246° |
| 2026-05-07 12:25 | 53.62385 | 9.97999 | 53 ft | 20 kts | 231° |
| 2026-05-07 12:25 | 53.62289 | 9.97804 | 50 ft | 22 kts | 230° |
| 2026-05-07 12:25 | 53.62185 | 9.97596 | 53 ft | 23 kts | 231° |
| 2026-05-07 12:25 | 53.62100 | 9.97424 | 53 ft | 21 kts | 231° |
| 2026-05-07 12:26 | 53.61995 | 9.97211 | 51 ft | 26 kts | 230° |
| 2026-05-07 12:26 | 53.61884 | 9.96989 | 51 ft | 21 kts | 231° |
| 2026-05-07 12:26 | 53.61798 | 9.96810 | 50 ft | 21 kts | 230° |
| 2026-05-07 12:26 | 53.61717 | 9.96648 | 53 ft | 8 kts | 230° |
| 2026-05-07 12:27 | 53.61674 | 9.96531 | 51 ft | 15 kts | 259° |
| 2026-05-07 12:27 | 53.61705 | 9.96434 | 53 ft | 12 kts | 328° |
| 2026-05-07 12:27 | 53.61806 | 9.96426 | 51 ft | 18 kts | 9° |
| 2026-05-07 12:27 | 53.61906 | 9.96535 | 50 ft | 0 kts | 48° |
| 2026-05-07 12:28 | 53.61951 | 9.96622 | 49 ft | 38 kts | 51° |
| 2026-05-07 12:28 | 53.62273 | 9.97280 | 46 ft | 105 kts | 50° |
| 2026-05-07 12:29 | 53.62853 | 9.98470 | 56 ft | 158 kts | 54° |
| 2026-05-07 12:29 | 53.63597 | 9.99913 | 692 ft | 160 kts | 51° |
| 2026-05-07 12:29 | 53.64287 | 10.01308 | 1548 ft | 162 kts | 53° |
| 2026-05-07 12:29 | 53.65047 | 10.02927 | 1943 ft | 189 kts | 52° |
| 2026-05-07 12:30 | 53.65894 | 10.04754 | 2563 ft | 203 kts | 52° |
| 2026-05-07 12:30 | 53.66770 | 10.06629 | 3532 ft | 203 kts | 53° |
| 2026-05-07 12:30 | 53.67658 | 10.08499 | 4371 ft | 205 kts | 53° |
| 2026-05-07 12:30 | 53.68557 | 10.10392 | 4855 ft | 208 kts | 53° |
| 2026-05-07 12:31 | 53.69458 | 10.12314 | 5001 ft | 210 kts | 53° |
| 2026-05-07 12:31 | 53.70369 | 10.14237 | 4995 ft | 210 kts | 53° |
| 2026-05-07 12:31 | 53.71190 | 10.16271 | 5029 ft | 209 kts | 65° |
| 2026-05-07 12:31 | 53.71698 | 10.18611 | 5252 ft | 220 kts | 73° |
| 2026-05-07 12:32 | 53.72135 | 10.21200 | 5602 ft | 244 kts | 74° |
| 2026-05-07 12:32 | 53.72603 | 10.24022 | 6314 ft | 253 kts | 74° |
| 2026-05-07 12:32 | 53.73074 | 10.26908 | 7161 ft | 257 kts | 74° |
| 2026-05-07 12:32 | 53.73558 | 10.29850 | 7943 ft | 263 kts | 74° |
| 2026-05-07 12:33 | 53.74568 | 10.35966 | 9549 ft | 278 kts | 74° |
| 2026-05-07 12:33 | 53.75095 | 10.39154 | 10316 ft | 286 kts | 74° |
| 2026-05-07 12:33 | 53.75640 | 10.42460 | 10703 ft | 307 kts | 74° |
| 2026-05-07 12:34 | 53.76233 | 10.46064 | 11027 ft | 329 kts | 74° |
| 2026-05-07 12:34 | 53.76865 | 10.49904 | 11355 ft | 350 kts | 74° |
| 2026-05-07 12:34 | 53.77530 | 10.53943 | 11900 ft | 361 kts | 74° |
| 2026-05-07 12:34 | 53.78207 | 10.58070 | 12622 ft | 367 kts | 74° |
| 2026-05-07 12:35 | 53.78869 | 10.62271 | 13354 ft | 373 kts | 76° |
| 2026-05-07 12:35 | 53.79203 | 10.66647 | 14065 ft | 378 kts | 89° |
| 2026-05-07 12:35 | 53.78920 | 10.71089 | 14707 ft | 384 kts | 103° |
| 2026-05-07 12:35 | 53.77975 | 10.75331 | 15345 ft | 389 kts | 118° |
| 2026-05-07 12:36 | 53.76591 | 10.79283 | 16021 ft | 393 kts | 123° |
| 2026-05-07 12:36 | 53.75109 | 10.83201 | 16672 ft | 398 kts | 123° |
| 2026-05-07 12:36 | 53.73634 | 10.87104 | 17319 ft | 402 kts | 123° |
| 2026-05-07 12:36 | 53.72125 | 10.91120 | 17992 ft | 408 kts | 123° |
| 2026-05-07 12:37 | 53.70600 | 10.95188 | 18647 ft | 412 kts | 123° |
| 2026-05-07 12:37 | 53.69012 | 10.99238 | 19317 ft | 415 kts | 126° |
| 2026-05-07 12:37 | 53.67349 | 11.03241 | 19992 ft | 418 kts | 127° |
| 2026-05-07 12:37 | 53.65651 | 11.07236 | 20649 ft | 421 kts | 127° |
| 2026-05-07 12:38 | 53.63934 | 11.11258 | 21311 ft | 424 kts | 127° |
| 2026-05-07 12:38 | 53.62212 | 11.15308 | 21978 ft | 427 kts | 127° |
| 2026-05-07 12:38 | 53.60502 | 11.19356 | 22589 ft | 431 kts | 127° |
| 2026-05-07 12:38 | 53.58763 | 11.23492 | 23227 ft | 435 kts | 127° |
| 2026-05-07 12:39 | 53.57020 | 11.27646 | 23820 ft | 439 kts | 127° |
| 2026-05-07 12:39 | 53.55247 | 11.31879 | 24347 ft | 442 kts | 127° |
| 2026-05-07 12:39 | 53.53471 | 11.36116 | 24889 ft | 445 kts | 127° |
| 2026-05-07 12:39 | 53.51682 | 11.40375 | 25442 ft | 447 kts | 127° |
| 2026-05-07 12:40 | 53.49881 | 11.44654 | 25988 ft | 450 kts | 127° |
| 2026-05-07 12:40 | 53.48070 | 11.48950 | 26544 ft | 452 kts | 127° |
| 2026-05-07 12:40 | 53.46248 | 11.53264 | 27092 ft | 454 kts | 127° |
| 2026-05-07 12:40 | 53.44438 | 11.57539 | 27642 ft | 456 kts | 127° |
| 2026-05-07 12:41 | 53.42596 | 11.61882 | 28200 ft | 458 kts | 127° |
| 2026-05-07 12:41 | 53.40806 | 11.66323 | 28721 ft | 461 kts | 123° |
| 2026-05-07 12:41 | 53.39226 | 11.71019 | 29254 ft | 464 kts | 120° |
| 2026-05-07 12:41 | 53.37702 | 11.75792 | 29758 ft | 466 kts | 119° |
| 2026-05-07 12:42 | 53.36200 | 11.80619 | 30235 ft | 468 kts | 119° |
| 2026-05-07 12:42 | 53.34704 | 11.85478 | 30589 ft | 471 kts | 119° |
| 2026-05-07 12:42 | 53.33201 | 11.90364 | 30922 ft | 474 kts | 119° |
| 2026-05-07 12:42 | 53.31702 | 11.95221 | 31227 ft | 477 kts | 119° |
| 2026-05-07 12:43 | 53.30172 | 12.00159 | 31539 ft | 480 kts | 119° |
| 2026-05-07 12:43 | 53.28628 | 12.05117 | 31836 ft | 483 kts | 119° |
| 2026-05-07 12:43 | 53.27065 | 12.10116 | 32121 ft | 486 kts | 119° |
| 2026-05-07 12:43 | 53.25498 | 12.15110 | 32535 ft | 486 kts | 119° |
| 2026-05-07 12:44 | 53.23930 | 12.20102 | 32937 ft | 486 kts | 119° |
| 2026-05-07 12:44 | 53.22357 | 12.25098 | 33307 ft | 487 kts | 119° |
| 2026-05-07 12:44 | 53.20781 | 12.30094 | 33651 ft | 487 kts | 119° |
| 2026-05-07 12:44 | 53.19197 | 12.35099 | 34017 ft | 488 kts | 119° |
| 2026-05-07 12:45 | 53.17633 | 12.40034 | 34304 ft | 488 kts | 119° |
| 2026-05-07 12:45 | 53.16044 | 12.45037 | 34630 ft | 488 kts | 119° |
| 2026-05-07 12:45 | 53.14457 | 12.50023 | 34966 ft | 487 kts | 119° |
| 2026-05-07 12:45 | 53.12868 | 12.55006 | 35259 ft | 487 kts | 119° |
| 2026-05-07 12:46 | 53.11274 | 12.59994 | 35532 ft | 488 kts | 120° |
| 2026-05-07 12:46 | 53.09679 | 12.64976 | 35800 ft | 488 kts | 120° |
| 2026-05-07 12:46 | 53.08081 | 12.69956 | 36089 ft | 488 kts | 120° |
| 2026-05-07 12:46 | 53.06481 | 12.74935 | 36356 ft | 489 kts | 120° |
| 2026-05-07 12:47 | 53.04877 | 12.79916 | 36613 ft | 489 kts | 120° |
| 2026-05-07 12:47 | 53.03291 | 12.84832 | 36846 ft | 489 kts | 120° |
| 2026-05-07 12:47 | 53.01681 | 12.89810 | 37112 ft | 489 kts | 120° |
| 2026-05-07 12:47 | 53.00069 | 12.94786 | 37375 ft | 490 kts | 120° |
| 2026-05-07 12:48 | 52.98453 | 12.99762 | 37619 ft | 490 kts | 120° |
| 2026-05-07 12:48 | 52.96836 | 13.04733 | 37860 ft | 490 kts | 120° |
| 2026-05-07 12:48 | 52.95217 | 13.09699 | 38106 ft | 490 kts | 121° |
| 2026-05-07 12:48 | 52.93567 | 13.14647 | 38327 ft | 490 kts | 122° |
| 2026-05-07 12:49 | 52.91842 | 13.19419 | 38564 ft | 489 kts | 124° |
| 2026-05-07 12:49 | 52.90041 | 13.24186 | 38764 ft | 489 kts | 125° |
| 2026-05-07 12:49 | 52.88221 | 13.28941 | 38926 ft | 489 kts | 125° |
| 2026-05-07 12:49 | 52.86399 | 13.33706 | 39007 ft | 491 kts | 124° |
| 2026-05-07 12:50 | 52.82775 | 13.43284 | 39033 ft | 491 kts | 124° |
| 2026-05-07 12:50 | 52.79179 | 13.52864 | 39030 ft | 490 kts | 124° |
| 2026-05-07 12:51 | 52.75584 | 13.62436 | 39029 ft | 490 kts | 124° |
| 2026-05-07 12:51 | 52.72008 | 13.71918 | 39028 ft | 490 kts | 124° |
| 2026-05-07 12:52 | 52.68401 | 13.81439 | 39025 ft | 489 kts | 125° |
| 2026-05-07 12:52 | 52.64790 | 13.90935 | 39023 ft | 489 kts | 125° |
| 2026-05-07 12:53 | 52.61173 | 14.00406 | 39025 ft | 488 kts | 125° |
| 2026-05-07 12:53 | 52.57558 | 14.09762 | 39022 ft | 487 kts | 126° |
| 2026-05-07 12:54 | 52.53839 | 14.19074 | 39022 ft | 487 kts | 126° |
| 2026-05-07 12:54 | 52.50114 | 14.28350 | 39021 ft | 487 kts | 126° |
| 2026-05-07 12:55 | 52.46395 | 14.37622 | 39023 ft | 486 kts | 126° |
| 2026-05-07 12:55 | 52.42703 | 14.46817 | 39020 ft | 486 kts | 126° |
| 2026-05-07 12:56 | 52.38977 | 14.56052 | 39014 ft | 485 kts | 127° |
| 2026-05-07 12:56 | 52.34825 | 14.64706 | 39017 ft | 483 kts | 132° |
| 2026-05-07 12:57 | 52.30508 | 14.73115 | 39012 ft | 483 kts | 133° |
| 2026-05-07 12:57 | 52.26159 | 14.81473 | 39005 ft | 483 kts | 133° |
| 2026-05-07 12:58 | 52.21835 | 14.89771 | 39007 ft | 483 kts | 133° |
| 2026-05-07 12:58 | 52.17481 | 14.98123 | 39012 ft | 484 kts | 133° |
| 2026-05-07 12:59 | 52.13119 | 15.06470 | 39006 ft | 485 kts | 133° |
| 2026-05-07 12:59 | 52.08742 | 15.14817 | 39002 ft | 485 kts | 133° |
| 2026-05-07 13:00 | 52.04378 | 15.23112 | 39004 ft | 486 kts | 134° |
| 2026-05-07 13:00 | 51.99971 | 15.31458 | 39006 ft | 487 kts | 134° |
| 2026-05-07 13:01 | 51.95548 | 15.39808 | 39005 ft | 488 kts | 134° |
| 2026-05-07 13:01 | 51.91113 | 15.48153 | 39007 ft | 488 kts | 134° |
| 2026-05-07 13:02 | 51.87428 | 15.55067 | 39001 ft | 488 kts | 134° |
| 2026-05-07 13:02 | 51.82278 | 15.64697 | 38998 ft | 486 kts | 134° |
| 2026-05-07 13:03 | 51.78600 | 15.71551 | 38997 ft | 485 kts | 134° |
| 2026-05-07 13:03 | 51.74180 | 15.79765 | 38993 ft | 484 kts | 134° |
| 2026-05-07 13:04 | 51.69763 | 15.87946 | 38990 ft | 483 kts | 135° |
| 2026-05-07 13:04 | 51.65349 | 15.96092 | 38989 ft | 482 kts | 135° |
| 2026-05-07 13:05 | 51.60963 | 16.04162 | 38996 ft | 482 kts | 135° |
| 2026-05-07 13:05 | 51.56544 | 16.12267 | 38988 ft | 482 kts | 135° |
| 2026-05-07 13:06 | 51.52123 | 16.20351 | 38985 ft | 481 kts | 135° |
| 2026-05-07 13:06 | 51.47699 | 16.28415 | 38984 ft | 481 kts | 135° |
| 2026-05-07 13:07 | 51.43270 | 16.36461 | 38983 ft | 482 kts | 135° |
| 2026-05-07 13:07 | 51.38988 | 16.44217 | 38981 ft | 482 kts | 135° |
| 2026-05-07 13:08 | 51.34536 | 16.52255 | 38975 ft | 482 kts | 135° |
| 2026-05-07 13:08 | 51.30080 | 16.60275 | 38972 ft | 482 kts | 135° |
| 2026-05-07 13:09 | 51.25617 | 16.68281 | 38972 ft | 483 kts | 135° |
| 2026-05-07 13:09 | 51.21174 | 16.76227 | 38964 ft | 483 kts | 135° |
| 2026-05-07 13:10 | 51.16693 | 16.84216 | 38974 ft | 483 kts | 135° |
| 2026-05-07 13:10 | 51.12348 | 16.91940 | 38955 ft | 483 kts | 135° |
| 2026-05-07 13:11 | 51.07860 | 16.99893 | 38966 ft | 483 kts | 136° |
| 2026-05-07 13:11 | 51.03399 | 17.07772 | 38962 ft | 482 kts | 136° |
| 2026-05-07 13:12 | 50.98905 | 17.15683 | 38959 ft | 483 kts | 136° |
| 2026-05-07 13:12 | 50.94398 | 17.23595 | 38947 ft | 484 kts | 136° |
| 2026-05-07 13:13 | 50.89877 | 17.31504 | 38942 ft | 484 kts | 136° |
| 2026-05-07 13:13 | 50.85344 | 17.39410 | 38931 ft | 485 kts | 136° |
| 2026-05-07 13:14 | 50.81078 | 17.46831 | 38929 ft | 486 kts | 136° |
| 2026-05-07 13:14 | 50.76527 | 17.54722 | 38924 ft | 485 kts | 136° |
| 2026-05-07 13:15 | 50.71983 | 17.62576 | 38923 ft | 484 kts | 136° |
| 2026-05-07 13:15 | 50.67751 | 17.69869 | 38920 ft | 483 kts | 136° |
| 2026-05-07 13:16 | 50.63215 | 17.77663 | 38916 ft | 482 kts | 137° |
| 2026-05-07 13:16 | 50.58957 | 17.84957 | 38919 ft | 481 kts | 137° |
| 2026-05-07 13:17 | 50.54427 | 17.92694 | 38915 ft | 480 kts | 137° |
| 2026-05-07 13:17 | 50.49899 | 18.00403 | 38910 ft | 480 kts | 137° |
| 2026-05-07 13:18 | 50.45372 | 18.08088 | 38911 ft | 479 kts | 137° |
| 2026-05-07 13:18 | 50.40877 | 18.15694 | 38912 ft | 478 kts | 137° |
| 2026-05-07 13:19 | 50.36347 | 18.23336 | 38908 ft | 478 kts | 137° |
| 2026-05-07 13:19 | 50.31821 | 18.30951 | 38917 ft | 478 kts | 137° |
| 2026-05-07 13:20 | 50.27493 | 18.38212 | 38917 ft | 478 kts | 137° |
| 2026-05-07 13:20 | 50.23031 | 18.45675 | 38916 ft | 478 kts | 137° |
| 2026-05-07 13:21 | 50.18493 | 18.53242 | 38915 ft | 478 kts | 137° |
| 2026-05-07 13:21 | 50.13944 | 18.60805 | 38913 ft | 478 kts | 137° |
| 2026-05-07 13:22 | 50.09393 | 18.68350 | 38917 ft | 478 kts | 137° |
| 2026-05-07 13:22 | 50.04865 | 18.75833 | 38921 ft | 478 kts | 137° |
| 2026-05-07 13:23 | 50.00303 | 18.83350 | 38921 ft | 478 kts | 138° |
| 2026-05-07 13:23 | 49.95735 | 18.90856 | 38926 ft | 478 kts | 138° |
| 2026-05-07 13:24 | 49.91162 | 18.98348 | 38931 ft | 478 kts | 138° |
| 2026-05-07 13:24 | 49.86579 | 19.05833 | 38934 ft | 478 kts | 138° |
| 2026-05-07 13:25 | 49.81996 | 19.13296 | 38936 ft | 478 kts | 138° |
| 2026-05-07 13:25 | 49.77438 | 19.20697 | 38938 ft | 478 kts | 138° |
| 2026-05-07 13:26 | 49.72847 | 19.28129 | 38939 ft | 478 kts | 138° |
| 2026-05-07 13:26 | 49.68256 | 19.35541 | 38939 ft | 478 kts | 138° |
| 2026-05-07 13:27 | 49.63658 | 19.42941 | 38944 ft | 477 kts | 139° |
| 2026-05-07 13:27 | 49.59057 | 19.50210 | 38945 ft | 475 kts | 141° |
| 2026-05-07 13:28 | 49.54113 | 19.56944 | 38952 ft | 473 kts | 144° |
| 2026-05-07 13:28 | 49.49111 | 19.63503 | 38950 ft | 472 kts | 144° |
| 2026-05-07 13:29 | 49.44153 | 19.70117 | 38955 ft | 472 kts | 143° |
| 2026-05-07 13:29 | 49.39257 | 19.76726 | 38953 ft | 472 kts | 143° |
| 2026-05-07 13:30 | 49.34334 | 19.83382 | 38958 ft | 472 kts | 143° |
| 2026-05-07 13:30 | 49.29405 | 19.90023 | 38961 ft | 472 kts | 143° |
| 2026-05-07 13:31 | 49.24470 | 19.96650 | 38965 ft | 472 kts | 143° |
| 2026-05-07 13:31 | 49.19530 | 20.03266 | 38964 ft | 472 kts | 143° |
| 2026-05-07 13:32 | 49.14616 | 20.09824 | 38962 ft | 472 kts | 143° |
| 2026-05-07 13:32 | 49.09670 | 20.16407 | 38962 ft | 472 kts | 143° |
| 2026-05-07 13:33 | 49.04721 | 20.22980 | 38963 ft | 472 kts | 143° |
| 2026-05-07 13:33 | 48.99768 | 20.29541 | 38967 ft | 472 kts | 143° |
| 2026-05-07 13:34 | 48.92370 | 20.39305 | 38963 ft | 472 kts | 144° |
| 2026-05-07 13:35 | 48.87411 | 20.45830 | 38959 ft | 472 kts | 144° |
| 2026-05-07 13:35 | 48.82448 | 20.52342 | 38961 ft | 472 kts | 144° |
| 2026-05-07 13:36 | 48.77476 | 20.58841 | 38950 ft | 472 kts | 144° |
| 2026-05-07 13:36 | 48.72538 | 20.65279 | 38960 ft | 472 kts | 144° |
| 2026-05-07 13:37 | 48.67561 | 20.71750 | 38958 ft | 472 kts | 144° |
| 2026-05-07 13:37 | 48.62578 | 20.78214 | 38958 ft | 472 kts | 144° |
| 2026-05-07 13:38 | 48.57597 | 20.84661 | 38962 ft | 472 kts | 144° |
| 2026-05-07 13:38 | 48.52640 | 20.91060 | 38958 ft | 472 kts | 144° |
| 2026-05-07 13:39 | 48.47648 | 20.97485 | 38959 ft | 472 kts | 144° |
| 2026-05-07 13:39 | 48.42649 | 21.03901 | 38959 ft | 472 kts | 144° |
| 2026-05-07 13:40 | 48.37652 | 21.10297 | 38955 ft | 472 kts | 144° |
| 2026-05-07 13:40 | 48.32676 | 21.16650 | 38955 ft | 472 kts | 144° |
| 2026-05-07 13:41 | 48.27661 | 21.23036 | 38958 ft | 473 kts | 144° |
| 2026-05-07 13:41 | 48.22641 | 21.29412 | 38960 ft | 473 kts | 144° |
| 2026-05-07 13:42 | 48.17615 | 21.35777 | 38974 ft | 473 kts | 144° |
| 2026-05-07 13:42 | 48.12580 | 21.42137 | 38992 ft | 473 kts | 144° |
| 2026-05-07 13:43 | 48.07573 | 21.48445 | 39003 ft | 474 kts | 144° |
| 2026-05-07 13:43 | 48.02523 | 21.54791 | 39015 ft | 475 kts | 144° |
| 2026-05-07 13:44 | 47.97462 | 21.61133 | 39017 ft | 475 kts | 144° |
| 2026-05-07 13:44 | 47.92396 | 21.67465 | 39023 ft | 475 kts | 144° |
| 2026-05-07 13:45 | 47.87353 | 21.73752 | 39018 ft | 476 kts | 144° |
| 2026-05-07 13:45 | 47.82269 | 21.80072 | 39008 ft | 477 kts | 144° |
| 2026-05-07 13:46 | 47.77176 | 21.86388 | 39006 ft | 477 kts | 144° |
| 2026-05-07 13:46 | 47.72073 | 21.92699 | 39003 ft | 477 kts | 144° |
| 2026-05-07 13:47 | 47.66961 | 21.99006 | 39010 ft | 478 kts | 144° |
| 2026-05-07 13:47 | 47.61881 | 22.05255 | 39006 ft | 478 kts | 144° |
| 2026-05-07 13:48 | 47.56863 | 22.11747 | 39012 ft | 482 kts | 137° |
| 2026-05-07 13:48 | 47.52245 | 22.18954 | 39011 ft | 483 kts | 136° |
| 2026-05-07 13:49 | 47.47698 | 22.26274 | 39010 ft | 483 kts | 136° |
| 2026-05-07 13:49 | 47.43150 | 22.33600 | 39016 ft | 484 kts | 136° |
| 2026-05-07 13:50 | 47.38618 | 22.40854 | 39017 ft | 484 kts | 136° |
| 2026-05-07 13:50 | 47.34043 | 22.48139 | 39022 ft | 484 kts | 136° |
| 2026-05-07 13:51 | 47.29462 | 22.55410 | 39021 ft | 484 kts | 136° |
| 2026-05-07 13:51 | 47.24907 | 22.62620 | 39021 ft | 484 kts | 136° |
| 2026-05-07 13:52 | 47.20313 | 22.69873 | 39019 ft | 484 kts | 136° |
| 2026-05-07 13:52 | 47.15713 | 22.77116 | 39019 ft | 485 kts | 136° |
| 2026-05-07 13:53 | 47.11108 | 22.84348 | 39018 ft | 485 kts | 137° |
| 2026-05-07 13:53 | 47.06526 | 22.91524 | 39017 ft | 485 kts | 137° |
| 2026-05-07 13:54 | 47.01907 | 22.98737 | 39017 ft | 485 kts | 137° |
| 2026-05-07 13:54 | 46.97282 | 23.05944 | 39013 ft | 485 kts | 137° |
| 2026-05-07 13:55 | 46.92652 | 23.13136 | 39014 ft | 486 kts | 137° |
| 2026-05-07 13:55 | 46.88044 | 23.20275 | 39008 ft | 486 kts | 137° |
| 2026-05-07 13:56 | 46.83397 | 23.27454 | 39012 ft | 486 kts | 137° |
| 2026-05-07 13:56 | 46.78743 | 23.34629 | 39015 ft | 487 kts | 137° |
| 2026-05-07 13:57 | 46.74084 | 23.41790 | 39014 ft | 487 kts | 137° |
| 2026-05-07 13:57 | 46.69449 | 23.48894 | 39011 ft | 487 kts | 137° |
| 2026-05-07 13:58 | 46.64779 | 23.56033 | 39012 ft | 487 kts | 137° |
| 2026-05-07 13:58 | 46.60101 | 23.63163 | 39013 ft | 487 kts | 137° |
| 2026-05-07 13:59 | 46.55419 | 23.70284 | 39004 ft | 487 kts | 137° |
| 2026-05-07 13:59 | 46.50732 | 23.77390 | 38998 ft | 487 kts | 137° |
| 2026-05-07 14:00 | 46.46074 | 23.84435 | 38987 ft | 487 kts | 137° |
| 2026-05-07 14:00 | 46.41376 | 23.91521 | 38986 ft | 487 kts | 137° |
| 2026-05-07 14:01 | 46.36672 | 23.98596 | 38986 ft | 488 kts | 137° |
| 2026-05-07 14:01 | 46.31959 | 24.05667 | 38989 ft | 488 kts | 137° |
| 2026-05-07 14:02 | 46.27239 | 24.12732 | 38984 ft | 488 kts | 137° |
| 2026-05-07 14:02 | 46.22547 | 24.19736 | 38987 ft | 489 kts | 137° |
| 2026-05-07 14:03 | 46.17814 | 24.26781 | 38984 ft | 489 kts | 137° |
| 2026-05-07 14:03 | 46.13074 | 24.33821 | 38981 ft | 489 kts | 137° |
| 2026-05-07 14:04 | 46.08334 | 24.40838 | 38998 ft | 489 kts | 137° |
| 2026-05-07 14:04 | 46.03588 | 24.47846 | 38991 ft | 489 kts | 137° |
| 2026-05-07 14:05 | 45.98873 | 24.54792 | 38986 ft | 488 kts | 137° |
| 2026-05-07 14:05 | 45.94122 | 24.61772 | 38988 ft | 488 kts | 137° |
| 2026-05-07 14:06 | 45.89367 | 24.68739 | 38988 ft | 488 kts | 137° |
| 2026-05-07 14:06 | 45.84602 | 24.75705 | 38992 ft | 489 kts | 137° |
| 2026-05-07 14:07 | 45.79870 | 24.82602 | 39000 ft | 489 kts | 137° |
| 2026-05-07 14:07 | 45.75099 | 24.89540 | 39006 ft | 489 kts | 137° |
| 2026-05-07 14:08 | 45.70322 | 24.96468 | 39008 ft | 489 kts | 137° |
| 2026-05-07 14:08 | 45.65540 | 25.03385 | 39013 ft | 489 kts | 137° |
| 2026-05-07 14:09 | 45.60784 | 25.10248 | 39014 ft | 489 kts | 137° |
| 2026-05-07 14:09 | 45.55988 | 25.17150 | 39014 ft | 490 kts | 137° |
| 2026-05-07 14:10 | 45.51187 | 25.24038 | 39016 ft | 490 kts | 137° |
| 2026-05-07 14:10 | 45.46379 | 25.30925 | 39023 ft | 490 kts | 137° |
| 2026-05-07 14:11 | 45.41560 | 25.37806 | 39028 ft | 491 kts | 137° |
| 2026-05-07 14:11 | 45.36773 | 25.44624 | 39036 ft | 491 kts | 137° |
| 2026-05-07 14:12 | 45.31945 | 25.51485 | 39042 ft | 491 kts | 137° |
| 2026-05-07 14:12 | 45.27109 | 25.58338 | 39049 ft | 491 kts | 137° |
| 2026-05-07 14:13 | 45.22267 | 25.65185 | 39046 ft | 492 kts | 137° |
| 2026-05-07 14:13 | 45.17445 | 25.71985 | 39044 ft | 493 kts | 137° |
| 2026-05-07 14:14 | 45.12580 | 25.78826 | 39042 ft | 493 kts | 137° |
| 2026-05-07 14:14 | 45.07707 | 25.85662 | 39039 ft | 494 kts | 137° |
| 2026-05-07 14:15 | 45.02824 | 25.92495 | 39036 ft | 494 kts | 137° |
| 2026-05-07 14:15 | 44.97970 | 25.99271 | 39031 ft | 494 kts | 137° |
| 2026-05-07 14:16 | 44.93075 | 26.06085 | 39034 ft | 494 kts | 137° |
| 2026-05-07 14:16 | 44.88171 | 26.12893 | 39033 ft | 495 kts | 137° |
| 2026-05-07 14:17 | 44.83264 | 26.19689 | 39028 ft | 495 kts | 137° |
| 2026-05-07 14:17 | 44.78337 | 26.26497 | 39028 ft | 496 kts | 137° |
| 2026-05-07 14:18 | 44.73464 | 26.33272 | 39027 ft | 497 kts | 136° |
| 2026-05-07 14:18 | 44.68693 | 26.40304 | 39028 ft | 497 kts | 135° |
| 2026-05-07 14:19 | 44.63944 | 26.47380 | 39027 ft | 498 kts | 135° |
| 2026-05-07 14:19 | 44.59166 | 26.54424 | 39035 ft | 498 kts | 135° |
| 2026-05-07 14:20 | 44.54366 | 26.61438 | 39035 ft | 498 kts | 136° |
| 2026-05-07 14:20 | 44.49591 | 26.68391 | 39038 ft | 499 kts | 136° |
| 2026-05-07 14:21 | 44.44772 | 26.75393 | 39038 ft | 499 kts | 136° |
| 2026-05-07 14:21 | 44.39944 | 26.82390 | 39038 ft | 500 kts | 136° |
| 2026-05-07 14:22 | 44.35108 | 26.89384 | 39037 ft | 501 kts | 136° |
| 2026-05-07 14:22 | 44.30289 | 26.96332 | 39035 ft | 501 kts | 136° |
| 2026-05-07 14:23 | 44.25427 | 27.03325 | 39036 ft | 502 kts | 136° |
| 2026-05-07 14:23 | 44.20554 | 27.10315 | 39042 ft | 503 kts | 136° |
| 2026-05-07 14:24 | 44.15668 | 27.17306 | 39046 ft | 504 kts | 136° |
| 2026-05-07 14:24 | 44.10772 | 27.24295 | 39049 ft | 505 kts | 136° |
| 2026-05-07 14:25 | 44.05898 | 27.31236 | 39046 ft | 505 kts | 136° |
| 2026-05-07 14:25 | 44.00979 | 27.38225 | 39055 ft | 506 kts | 136° |
| 2026-05-07 14:26 | 43.96048 | 27.45209 | 39057 ft | 507 kts | 136° |
| 2026-05-07 14:26 | 43.91108 | 27.52190 | 39063 ft | 507 kts | 136° |
| 2026-05-07 14:27 | 43.86193 | 27.59119 | 39070 ft | 508 kts | 136° |
| 2026-05-07 14:27 | 43.81235 | 27.66089 | 39072 ft | 508 kts | 136° |
| 2026-05-07 14:28 | 43.76267 | 27.73058 | 39081 ft | 509 kts | 136° |
| 2026-05-07 14:28 | 43.71292 | 27.80018 | 39082 ft | 509 kts | 136° |
| 2026-05-07 14:29 | 43.66302 | 27.86983 | 39093 ft | 510 kts | 136° |
| 2026-05-07 14:29 | 43.61335 | 27.93897 | 39095 ft | 511 kts | 136° |
| 2026-05-07 14:30 | 43.56331 | 28.00847 | 39104 ft | 511 kts | 136° |
| 2026-05-07 14:30 | 43.51312 | 28.07797 | 39105 ft | 512 kts | 136° |
| 2026-05-07 14:31 | 43.46283 | 28.14747 | 39107 ft | 512 kts | 136° |
| 2026-05-07 14:31 | 43.41280 | 28.21641 | 39111 ft | 513 kts | 136° |
| 2026-05-07 14:32 | 43.36234 | 28.28579 | 39116 ft | 513 kts | 136° |
| 2026-05-07 14:32 | 43.31177 | 28.35513 | 39116 ft | 514 kts | 135° |
| 2026-05-07 14:33 | 43.26112 | 28.42442 | 39124 ft | 514 kts | 135° |
| 2026-05-07 14:33 | 43.21072 | 28.49319 | 39121 ft | 515 kts | 135° |
| 2026-05-07 14:34 | 43.15992 | 28.56234 | 39129 ft | 515 kts | 135° |
| 2026-05-07 14:34 | 43.10905 | 28.63142 | 39124 ft | 515 kts | 135° |
| 2026-05-07 14:35 | 43.05813 | 28.70039 | 39127 ft | 515 kts | 135° |
| 2026-05-07 14:35 | 43.00746 | 28.76884 | 39128 ft | 516 kts | 135° |
| 2026-05-07 14:36 | 42.95636 | 28.83771 | 39126 ft | 516 kts | 135° |
| 2026-05-07 14:36 | 42.90523 | 28.90646 | 39130 ft | 516 kts | 135° |
| 2026-05-07 14:37 | 42.85404 | 28.97512 | 39129 ft | 516 kts | 135° |
| 2026-05-07 14:37 | 42.77749 | 29.07747 | 39127 ft | 516 kts | 135° |
| 2026-05-07 14:38 | 42.72616 | 29.14588 | 39128 ft | 517 kts | 135° |
| 2026-05-07 14:38 | 42.67476 | 29.21424 | 39130 ft | 517 kts | 135° |
| 2026-05-07 14:39 | 42.62331 | 29.28248 | 39130 ft | 517 kts | 135° |
| 2026-05-07 14:39 | 42.57218 | 29.35014 | 39131 ft | 517 kts | 135° |
| 2026-05-07 14:40 | 42.52062 | 29.41821 | 39132 ft | 517 kts | 135° |
| 2026-05-07 14:40 | 42.46901 | 29.48618 | 39126 ft | 517 kts | 135° |
| 2026-05-07 14:41 | 42.41736 | 29.55402 | 39127 ft | 517 kts | 135° |
| 2026-05-07 14:41 | 42.37055 | 29.62669 | 39127 ft | 515 kts | 121° |
| 2026-05-07 14:42 | 42.33939 | 29.71327 | 39131 ft | 512 kts | 108° |
| 2026-05-07 14:42 | 42.31631 | 29.80411 | 39129 ft | 511 kts | 105° |
| 2026-05-07 14:43 | 42.29443 | 29.89544 | 39129 ft | 511 kts | 106° |
| 2026-05-07 14:43 | 42.27180 | 29.98652 | 39131 ft | 513 kts | 107° |
| 2026-05-07 14:44 | 42.24852 | 30.07769 | 39130 ft | 521 kts | 107° |
| 2026-05-07 14:44 | 42.22455 | 30.17052 | 39131 ft | 525 kts | 107° |
| 2026-05-07 14:45 | 42.20045 | 30.26354 | 39133 ft | 525 kts | 107° |
| 2026-05-07 14:45 | 42.17631 | 30.35641 | 39135 ft | 525 kts | 107° |
| 2026-05-07 14:46 | 42.15212 | 30.44925 | 39131 ft | 525 kts | 107° |
| 2026-05-07 14:46 | 42.12802 | 30.54135 | 39132 ft | 525 kts | 107° |
| 2026-05-07 14:47 | 42.10368 | 30.63406 | 39130 ft | 525 kts | 107° |
| 2026-05-07 14:47 | 42.07926 | 30.72667 | 39130 ft | 525 kts | 108° |
| 2026-05-07 14:48 | 42.05477 | 30.81920 | 39131 ft | 525 kts | 108° |
| 2026-05-07 14:48 | 42.03021 | 30.91167 | 39131 ft | 525 kts | 108° |
| 2026-05-07 14:49 | 42.00573 | 31.00347 | 39131 ft | 525 kts | 108° |
| 2026-05-07 14:49 | 41.98108 | 31.09582 | 39131 ft | 525 kts | 108° |
| 2026-05-07 14:50 | 41.95634 | 31.18811 | 39128 ft | 525 kts | 108° |
| 2026-05-07 14:50 | 41.93153 | 31.28027 | 39130 ft | 525 kts | 108° |
| 2026-05-07 14:51 | 41.90682 | 31.37180 | 39131 ft | 525 kts | 108° |
| 2026-05-07 14:51 | 41.88186 | 31.46388 | 39129 ft | 525 kts | 108° |
| 2026-05-07 14:52 | 41.85684 | 31.55586 | 39129 ft | 525 kts | 108° |
| 2026-05-07 14:52 | 41.83174 | 31.64783 | 39121 ft | 525 kts | 108° |
| 2026-05-07 14:53 | 41.80673 | 31.73906 | 39122 ft | 525 kts | 108° |
| 2026-05-07 14:53 | 41.78140 | 31.83083 | 39125 ft | 525 kts | 108° |
| 2026-05-07 14:54 | 41.75596 | 31.92253 | 39131 ft | 525 kts | 108° |
| 2026-05-07 14:54 | 41.73048 | 32.01417 | 39132 ft | 525 kts | 108° |
| 2026-05-07 14:55 | 41.70510 | 32.10521 | 39128 ft | 525 kts | 108° |
| 2026-05-07 14:55 | 41.67955 | 32.19675 | 39130 ft | 525 kts | 108° |
| 2026-05-07 14:56 | 41.65396 | 32.28829 | 39130 ft | 526 kts | 108° |
| 2026-05-07 14:56 | 41.62836 | 32.37983 | 39130 ft | 526 kts | 108° |
| 2026-05-07 14:57 | 41.60247 | 32.47129 | 39133 ft | 526 kts | 109° |
| 2026-05-07 14:57 | 41.57666 | 32.56205 | 39132 ft | 527 kts | 109° |
| 2026-05-07 14:58 | 41.55063 | 32.65348 | 39132 ft | 527 kts | 109° |
| 2026-05-07 14:58 | 41.52453 | 32.74491 | 39131 ft | 527 kts | 109° |
| 2026-05-07 14:59 | 41.49837 | 32.83627 | 39125 ft | 527 kts | 109° |
| 2026-05-07 14:59 | 41.47231 | 32.92694 | 39129 ft | 527 kts | 109° |
| 2026-05-07 15:00 | 41.44298 | 33.01666 | 39127 ft | 529 kts | 116° |
| 2026-05-07 15:00 | 41.40809 | 33.10306 | 39123 ft | 530 kts | 117° |
| 2026-05-07 15:01 | 41.37222 | 33.18889 | 39119 ft | 530 kts | 117° |
| 2026-05-07 15:01 | 41.33659 | 33.27407 | 39117 ft | 530 kts | 117° |
| 2026-05-07 15:02 | 41.30168 | 33.36049 | 39117 ft | 530 kts | 116° |
| 2026-05-07 15:02 | 41.26729 | 33.44706 | 39114 ft | 530 kts | 116° |
| 2026-05-07 15:03 | 41.23321 | 33.53388 | 39109 ft | 530 kts | 116° |
| 2026-05-07 15:03 | 41.19902 | 33.62057 | 39107 ft | 530 kts | 116° |
| 2026-05-07 15:04 | 41.16490 | 33.70647 | 39103 ft | 530 kts | 116° |
| 2026-05-07 15:04 | 41.13041 | 33.79291 | 39108 ft | 530 kts | 116° |
| 2026-05-07 15:05 | 41.09586 | 33.87925 | 39108 ft | 530 kts | 116° |
| 2026-05-07 15:05 | 41.06124 | 33.96550 | 39104 ft | 529 kts | 116° |
| 2026-05-07 15:06 | 41.02683 | 34.05099 | 39110 ft | 530 kts | 116° |
| 2026-05-07 15:06 | 40.99211 | 34.13700 | 39110 ft | 529 kts | 116° |
| 2026-05-07 15:07 | 40.95736 | 34.22287 | 39107 ft | 529 kts | 117° |
| 2026-05-07 15:07 | 40.92254 | 34.30865 | 39107 ft | 529 kts | 117° |
| 2026-05-07 15:08 | 40.88790 | 34.39371 | 39104 ft | 529 kts | 117° |
| 2026-05-07 15:08 | 40.85298 | 34.47926 | 39106 ft | 529 kts | 117° |
| 2026-05-07 15:09 | 40.81796 | 34.56479 | 39101 ft | 529 kts | 117° |
| 2026-05-07 15:09 | 40.78288 | 34.65023 | 39105 ft | 530 kts | 117° |
| 2026-05-07 15:10 | 40.74945 | 34.73589 | 39106 ft | 528 kts | 110° |
| 2026-05-07 15:10 | 40.72634 | 34.82761 | 39107 ft | 527 kts | 105° |
| 2026-05-07 15:11 | 40.70578 | 34.92033 | 39111 ft | 527 kts | 104° |
| 2026-05-07 15:11 | 40.68552 | 35.01316 | 39111 ft | 527 kts | 104° |
| 2026-05-07 15:12 | 40.66515 | 35.10524 | 39107 ft | 527 kts | 104° |
| 2026-05-07 15:12 | 40.64442 | 35.19784 | 39106 ft | 527 kts | 105° |
| 2026-05-07 15:13 | 40.62359 | 35.29034 | 39103 ft | 527 kts | 105° |
| 2026-05-07 15:13 | 40.60268 | 35.38282 | 39103 ft | 527 kts | 105° |
| 2026-05-07 15:14 | 40.58188 | 35.47450 | 39106 ft | 526 kts | 105° |
| 2026-05-07 15:14 | 40.56086 | 35.56674 | 39104 ft | 526 kts | 105° |
| 2026-05-07 15:15 | 40.53980 | 35.65881 | 39106 ft | 526 kts | 105° |
| 2026-05-07 15:15 | 40.51868 | 35.75074 | 39105 ft | 525 kts | 105° |
| 2026-05-07 15:16 | 40.49764 | 35.84192 | 39108 ft | 525 kts | 105° |
| 2026-05-07 15:16 | 40.47641 | 35.93364 | 39113 ft | 525 kts | 105° |
| 2026-05-07 15:17 | 40.45511 | 36.02527 | 39116 ft | 525 kts | 105° |
| 2026-05-07 15:17 | 40.43373 | 36.11685 | 39121 ft | 525 kts | 106° |
| 2026-05-07 15:18 | 40.41242 | 36.20772 | 39126 ft | 524 kts | 106° |
| 2026-05-07 15:18 | 40.39093 | 36.29909 | 39128 ft | 524 kts | 106° |
| 2026-05-07 15:19 | 40.36936 | 36.39037 | 39130 ft | 524 kts | 106° |
| 2026-05-07 15:19 | 40.34773 | 36.48155 | 39131 ft | 524 kts | 106° |
| 2026-05-07 15:20 | 40.32619 | 36.57201 | 39128 ft | 523 kts | 106° |
| 2026-05-07 15:20 | 40.30443 | 36.66299 | 39127 ft | 523 kts | 107° |
| 2026-05-07 15:21 | 40.28263 | 36.75385 | 39137 ft | 523 kts | 107° |
| 2026-05-07 15:21 | 40.26074 | 36.84470 | 39138 ft | 523 kts | 107° |
| 2026-05-07 15:22 | 40.23894 | 36.93484 | 39142 ft | 523 kts | 107° |
| 2026-05-07 15:22 | 40.21693 | 37.02547 | 39139 ft | 523 kts | 107° |
| 2026-05-07 15:23 | 40.19485 | 37.11605 | 39142 ft | 523 kts | 107° |
| 2026-05-07 15:23 | 40.17270 | 37.20656 | 39144 ft | 523 kts | 107° |
| 2026-05-07 15:24 | 40.15049 | 37.29701 | 39144 ft | 522 kts | 107° |
| 2026-05-07 15:24 | 40.12835 | 37.38680 | 39143 ft | 522 kts | 107° |
| 2026-05-07 15:25 | 40.10600 | 37.47711 | 39139 ft | 523 kts | 107° |
| 2026-05-07 15:25 | 40.08357 | 37.56741 | 39144 ft | 523 kts | 108° |
| 2026-05-07 15:26 | 40.05937 | 37.65694 | 39145 ft | 523 kts | 111° |
| 2026-05-07 15:26 | 40.03012 | 37.74318 | 39144 ft | 524 kts | 118° |
| 2026-05-07 15:27 | 39.99401 | 37.82567 | 39143 ft | 524 kts | 121° |
| 2026-05-07 15:27 | 39.95617 | 37.90688 | 39142 ft | 524 kts | 122° |
| 2026-05-07 15:28 | 39.91821 | 37.98797 | 39143 ft | 524 kts | 122° |
| 2026-05-07 15:28 | 39.88067 | 38.06861 | 39149 ft | 524 kts | 121° |
| 2026-05-07 15:29 | 39.84296 | 38.14975 | 39151 ft | 524 kts | 122° |
| 2026-05-07 15:29 | 39.80521 | 38.23082 | 39146 ft | 524 kts | 122° |
| 2026-05-07 15:30 | 39.76738 | 38.31181 | 39147 ft | 524 kts | 122° |
| 2026-05-07 15:30 | 39.72978 | 38.39210 | 39146 ft | 523 kts | 122° |
| 2026-05-07 15:31 | 39.69189 | 38.47279 | 39143 ft | 523 kts | 122° |
| 2026-05-07 15:31 | 39.65394 | 38.55340 | 39144 ft | 523 kts | 122° |
| 2026-05-07 15:32 | 39.61592 | 38.63395 | 39148 ft | 523 kts | 122° |
| 2026-05-07 15:32 | 39.57811 | 38.71387 | 39146 ft | 523 kts | 122° |
| 2026-05-07 15:33 | 39.53997 | 38.79426 | 39149 ft | 524 kts | 123° |
| 2026-05-07 15:33 | 39.50177 | 38.87457 | 39149 ft | 524 kts | 123° |
| 2026-05-07 15:34 | 39.46350 | 38.95483 | 39145 ft | 524 kts | 123° |
| 2026-05-07 15:34 | 39.42540 | 39.03453 | 39143 ft | 524 kts | 123° |
| 2026-05-07 15:35 | 39.38699 | 39.11469 | 39139 ft | 525 kts | 123° |
| 2026-05-07 15:35 | 39.34850 | 39.19482 | 39140 ft | 525 kts | 123° |
| 2026-05-07 15:36 | 39.30992 | 39.27490 | 39136 ft | 525 kts | 123° |
| 2026-05-07 15:36 | 39.27128 | 39.35491 | 39134 ft | 525 kts | 124° |
| 2026-05-07 15:37 | 39.23284 | 39.43433 | 39126 ft | 525 kts | 124° |
| 2026-05-07 15:37 | 39.19406 | 39.51424 | 39119 ft | 526 kts | 124° |
| 2026-05-07 15:38 | 39.15519 | 39.59413 | 39112 ft | 526 kts | 124° |
| 2026-05-07 15:38 | 39.11624 | 39.67398 | 39109 ft | 527 kts | 124° |
| 2026-05-07 15:39 | 39.08379 | 39.74036 | 39102 ft | 527 kts | 124° |
| 2026-05-07 15:39 | 39.03831 | 39.83315 | 39097 ft | 528 kts | 125° |
| 2026-05-07 15:40 | 39.00571 | 39.89950 | 39098 ft | 528 kts | 125° |
| 2026-05-07 15:40 | 38.95977 | 39.99277 | 39098 ft | 529 kts | 125° |
| 2026-05-07 15:41 | 38.92703 | 40.05907 | 39097 ft | 529 kts | 125° |
| 2026-05-07 15:41 | 38.88755 | 40.13885 | 39101 ft | 529 kts | 125° |
| 2026-05-07 15:42 | 38.84155 | 40.23152 | 39103 ft | 530 kts | 126° |
| 2026-05-07 15:42 | 38.80861 | 40.29776 | 39101 ft | 530 kts | 126° |
| 2026-05-07 15:43 | 38.76893 | 40.37736 | 39104 ft | 530 kts | 126° |
| 2026-05-07 15:43 | 38.72917 | 40.45690 | 39103 ft | 530 kts | 126° |
| 2026-05-07 15:44 | 38.68940 | 40.53627 | 39096 ft | 530 kts | 126° |
| 2026-05-07 15:44 | 38.64983 | 40.61506 | 39099 ft | 530 kts | 126° |
| 2026-05-07 15:45 | 38.60999 | 40.69420 | 39096 ft | 529 kts | 126° |
| 2026-05-07 15:45 | 38.57010 | 40.77326 | 39088 ft | 529 kts | 127° |
| 2026-05-07 15:46 | 38.51019 | 40.89158 | 39103 ft | 529 kts | 127° |
| 2026-05-07 15:47 | 38.47045 | 40.96980 | 39100 ft | 528 kts | 127° |
| 2026-05-07 15:47 | 38.43042 | 41.04844 | 39103 ft | 528 kts | 127° |
| 2026-05-07 15:48 | 38.39037 | 41.12693 | 39105 ft | 528 kts | 127° |
| 2026-05-07 15:48 | 38.35025 | 41.20532 | 39102 ft | 528 kts | 127° |
| 2026-05-07 15:49 | 38.31041 | 41.28303 | 39105 ft | 528 kts | 127° |
| 2026-05-07 15:49 | 38.27024 | 41.36118 | 39109 ft | 528 kts | 127° |
| 2026-05-07 15:50 | 38.22999 | 41.43928 | 39098 ft | 528 kts | 128° |
| 2026-05-07 15:50 | 38.18971 | 41.51731 | 39097 ft | 528 kts | 128° |
| 2026-05-07 15:51 | 38.14966 | 41.59469 | 39093 ft | 527 kts | 128° |
| 2026-05-07 15:51 | 38.10930 | 41.67245 | 39091 ft | 527 kts | 128° |
| 2026-05-07 15:52 | 38.06890 | 41.75012 | 39095 ft | 528 kts | 128° |
| 2026-05-07 15:52 | 38.02843 | 41.82776 | 39090 ft | 528 kts | 128° |
| 2026-05-07 15:53 | 37.98786 | 41.90537 | 39096 ft | 528 kts | 128° |
| 2026-05-07 15:53 | 37.94750 | 41.98242 | 39085 ft | 528 kts | 129° |
| 2026-05-07 15:54 | 37.90680 | 42.05994 | 39095 ft | 529 kts | 129° |
| 2026-05-07 15:54 | 37.86603 | 42.13742 | 39099 ft | 529 kts | 129° |
| 2026-05-07 15:55 | 37.82520 | 42.21480 | 39099 ft | 529 kts | 129° |
| 2026-05-07 15:55 | 37.78457 | 42.29164 | 39100 ft | 529 kts | 129° |
| 2026-05-07 15:56 | 37.74366 | 42.36882 | 39097 ft | 529 kts | 129° |
| 2026-05-07 15:56 | 37.70270 | 42.44593 | 39104 ft | 529 kts | 129° |
| 2026-05-07 15:57 | 37.66169 | 42.52294 | 39102 ft | 529 kts | 129° |
| 2026-05-07 15:57 | 37.62088 | 42.59938 | 39111 ft | 529 kts | 129° |
| 2026-05-07 15:58 | 37.57976 | 42.67624 | 39107 ft | 529 kts | 129° |
| 2026-05-07 15:58 | 37.53858 | 42.75305 | 39100 ft | 529 kts | 129° |
| 2026-05-07 15:59 | 37.49738 | 42.82970 | 39103 ft | 528 kts | 130° |
| 2026-05-07 15:59 | 37.45617 | 42.90622 | 39099 ft | 528 kts | 130° |
| 2026-05-07 16:00 | 37.41517 | 42.98215 | 39096 ft | 528 kts | 130° |
| 2026-05-07 16:00 | 37.37392 | 43.05841 | 39096 ft | 527 kts | 130° |
| 2026-05-07 16:01 | 37.33268 | 43.13445 | 39094 ft | 526 kts | 130° |
| 2026-05-07 16:01 | 37.29139 | 43.21038 | 39095 ft | 526 kts | 130° |
| 2026-05-07 16:02 | 37.25039 | 43.28562 | 39090 ft | 526 kts | 130° |
| 2026-05-07 16:02 | 37.20906 | 43.36131 | 39091 ft | 525 kts | 130° |
| 2026-05-07 16:03 | 37.16773 | 43.43684 | 39087 ft | 525 kts | 130° |
| 2026-05-07 16:03 | 37.12635 | 43.51227 | 39086 ft | 525 kts | 131° |
| 2026-05-07 16:04 | 37.08495 | 43.58758 | 39078 ft | 525 kts | 131° |
| 2026-05-07 16:04 | 37.04376 | 43.66235 | 39066 ft | 525 kts | 131° |
| 2026-05-07 16:05 | 37.00220 | 43.73754 | 39068 ft | 525 kts | 131° |
| 2026-05-07 16:05 | 36.96067 | 43.81259 | 39071 ft | 524 kts | 131° |
| 2026-05-07 16:06 | 36.91913 | 43.88751 | 39060 ft | 524 kts | 131° |
| 2026-05-07 16:06 | 36.87754 | 43.96233 | 39060 ft | 524 kts | 131° |
| 2026-05-07 16:07 | 36.83616 | 44.03656 | 39047 ft | 524 kts | 132° |
| 2026-05-07 16:07 | 36.79239 | 44.10861 | 39060 ft | 515 kts | 141° |
| 2026-05-07 16:07 | 36.76622 | 44.13839 | 39065 ft | 504 kts | 150° |
| 2026-05-07 16:08 | 36.73734 | 44.16212 | 39064 ft | 493 kts | 159° |
| 2026-05-07 16:08 | 36.67519 | 44.19513 | 39061 ft | 482 kts | 168° |
| 2026-05-07 16:09 | 36.61151 | 44.22012 | 39059 ft | 479 kts | 171° |
| 2026-05-07 16:09 | 36.54829 | 44.24430 | 39055 ft | 479 kts | 170° |
| 2026-05-07 16:10 | 36.48483 | 44.26953 | 39057 ft | 478 kts | 170° |
| 2026-05-07 16:10 | 36.42166 | 44.29520 | 39056 ft | 477 kts | 169° |
| 2026-05-07 16:11 | 36.35902 | 44.32071 | 39051 ft | 476 kts | 170° |
| 2026-05-07 16:11 | 36.29610 | 44.34623 | 39051 ft | 476 kts | 170° |
| 2026-05-07 16:12 | 36.23318 | 44.37169 | 39050 ft | 476 kts | 170° |
| 2026-05-07 16:12 | 36.17034 | 44.39706 | 39050 ft | 475 kts | 170° |
| 2026-05-07 16:13 | 36.10756 | 44.42237 | 39046 ft | 474 kts | 170° |
| 2026-05-07 16:13 | 36.04529 | 44.44745 | 39037 ft | 474 kts | 170° |
| 2026-05-07 16:14 | 35.98260 | 44.47264 | 39041 ft | 473 kts | 170° |
| 2026-05-07 16:14 | 35.91999 | 44.49775 | 39038 ft | 473 kts | 170° |
| 2026-05-07 16:15 | 35.85742 | 44.52281 | 39033 ft | 473 kts | 170° |
| 2026-05-07 16:15 | 35.79533 | 44.54762 | 39026 ft | 472 kts | 170° |
| 2026-05-07 16:16 | 35.73286 | 44.57255 | 39029 ft | 472 kts | 170° |
| 2026-05-07 16:16 | 35.67043 | 44.59744 | 39037 ft | 471 kts | 170° |
| 2026-05-07 16:17 | 35.60811 | 44.62226 | 39035 ft | 471 kts | 170° |
| 2026-05-07 16:17 | 35.54578 | 44.64703 | 39033 ft | 471 kts | 170° |
| 2026-05-07 16:18 | 35.48391 | 44.67158 | 39032 ft | 470 kts | 170° |
| 2026-05-07 16:18 | 35.42162 | 44.69624 | 39032 ft | 470 kts | 170° |
| 2026-05-07 16:19 | 35.35935 | 44.72086 | 39031 ft | 470 kts | 171° |
| 2026-05-07 16:19 | 35.29710 | 44.74542 | 39031 ft | 470 kts | 171° |
| 2026-05-07 16:20 | 35.23486 | 44.76995 | 39029 ft | 470 kts | 171° |
| 2026-05-07 16:20 | 35.17303 | 44.79427 | 39028 ft | 470 kts | 171° |
| 2026-05-07 16:21 | 35.11074 | 44.81874 | 39024 ft | 470 kts | 171° |
| 2026-05-07 16:21 | 35.04853 | 44.84314 | 39027 ft | 470 kts | 171° |
| 2026-05-07 16:22 | 34.98626 | 44.86752 | 39025 ft | 470 kts | 171° |
| 2026-05-07 16:22 | 34.92442 | 44.89170 | 39023 ft | 470 kts | 171° |
| 2026-05-07 16:23 | 34.86218 | 44.91598 | 39019 ft | 470 kts | 171° |
| 2026-05-07 16:23 | 34.79995 | 44.94024 | 39021 ft | 470 kts | 171° |
| 2026-05-07 16:24 | 34.73769 | 44.96447 | 39021 ft | 469 kts | 171° |
| 2026-05-07 16:24 | 34.67555 | 44.98861 | 39023 ft | 469 kts | 171° |
| 2026-05-07 16:25 | 34.61439 | 45.01240 | 39018 ft | 459 kts | 171° |
| 2026-05-07 16:25 | 34.55397 | 45.03585 | 39016 ft | 454 kts | 171° |
| 2026-05-07 16:26 | 34.49377 | 45.05906 | 39016 ft | 454 kts | 171° |
| 2026-05-07 16:26 | 34.43357 | 45.08224 | 39014 ft | 454 kts | 171° |
| 2026-05-07 16:27 | 34.37377 | 45.10528 | 39013 ft | 454 kts | 171° |
| 2026-05-07 16:27 | 34.31360 | 45.12844 | 39013 ft | 454 kts | 171° |
| 2026-05-07 16:28 | 34.25347 | 45.15155 | 39010 ft | 453 kts | 172° |
| 2026-05-07 16:28 | 34.19334 | 45.17463 | 39008 ft | 453 kts | 172° |
| 2026-05-07 16:29 | 34.13322 | 45.19766 | 39013 ft | 453 kts | 172° |
| 2026-05-07 16:29 | 34.07358 | 45.22048 | 39007 ft | 453 kts | 172° |
| 2026-05-07 16:30 | 34.01357 | 45.24341 | 39010 ft | 452 kts | 172° |
| 2026-05-07 16:30 | 33.95353 | 45.26632 | 39019 ft | 452 kts | 172° |
| 2026-05-07 16:31 | 33.89353 | 45.28917 | 39024 ft | 452 kts | 172° |
| 2026-05-07 16:31 | 33.83399 | 45.31181 | 39029 ft | 452 kts | 172° |
| 2026-05-07 16:32 | 33.77403 | 45.33458 | 39033 ft | 452 kts | 172° |
| 2026-05-07 16:32 | 33.71405 | 45.35732 | 39038 ft | 452 kts | 172° |
| 2026-05-07 16:33 | 33.65404 | 45.38004 | 39047 ft | 452 kts | 172° |
| 2026-05-07 16:33 | 33.59407 | 45.40272 | 39047 ft | 452 kts | 172° |
| 2026-05-07 16:34 | 33.53496 | 45.42509 | 39054 ft | 446 kts | 172° |
| 2026-05-07 16:34 | 33.47590 | 45.44738 | 39064 ft | 444 kts | 172° |
| 2026-05-07 16:35 | 33.41693 | 45.46954 | 39061 ft | 444 kts | 172° |
| 2026-05-07 16:35 | 33.35800 | 45.49168 | 39062 ft | 444 kts | 172° |
| 2026-05-07 16:36 | 33.29945 | 45.51366 | 39059 ft | 444 kts | 172° |
| 2026-05-07 16:36 | 33.24053 | 45.53574 | 39054 ft | 444 kts | 172° |
| 2026-05-07 16:37 | 33.18163 | 45.55779 | 39054 ft | 444 kts | 172° |
| 2026-05-07 16:37 | 33.12272 | 45.57982 | 39051 ft | 443 kts | 172° |
| 2026-05-07 16:38 | 33.06424 | 45.60164 | 39052 ft | 443 kts | 172° |
| 2026-05-07 16:38 | 33.00538 | 45.62358 | 39047 ft | 443 kts | 172° |
| 2026-05-07 16:39 | 32.94651 | 45.64550 | 39044 ft | 443 kts | 173° |
| 2026-05-07 16:39 | 32.88762 | 45.66739 | 39039 ft | 443 kts | 173° |
| 2026-05-07 16:40 | 32.82980 | 45.69569 | 39038 ft | 461 kts | 161° |
| 2026-05-07 16:40 | 32.77672 | 45.73987 | 39035 ft | 474 kts | 153° |
| 2026-05-07 16:41 | 32.72481 | 45.78852 | 39040 ft | 476 kts | 152° |
| 2026-05-07 16:41 | 32.67301 | 45.83759 | 39029 ft | 476 kts | 153° |
| 2026-05-07 16:42 | 32.62104 | 45.88624 | 39034 ft | 476 kts | 153° |
| 2026-05-07 16:42 | 32.56893 | 45.93464 | 39029 ft | 476 kts | 153° |
| 2026-05-07 16:43 | 32.51708 | 45.98265 | 39023 ft | 476 kts | 153° |
| 2026-05-07 16:43 | 32.46487 | 46.03093 | 39020 ft | 476 kts | 153° |
| 2026-05-07 16:44 | 32.41264 | 46.07917 | 39017 ft | 476 kts | 153° |
| 2026-05-07 16:44 | 32.36032 | 46.12743 | 39021 ft | 477 kts | 153° |
| 2026-05-07 16:45 | 32.30838 | 46.17527 | 39024 ft | 477 kts | 153° |
| 2026-05-07 16:45 | 32.25601 | 46.22343 | 39013 ft | 477 kts | 153° |
| 2026-05-07 16:46 | 32.20358 | 46.27157 | 39013 ft | 477 kts | 153° |
| 2026-05-07 16:46 | 32.15113 | 46.31966 | 39006 ft | 478 kts | 153° |
| 2026-05-07 16:47 | 32.09896 | 46.36741 | 39001 ft | 478 kts | 153° |
| 2026-05-07 16:47 | 32.04640 | 46.41547 | 38989 ft | 478 kts | 153° |
| 2026-05-07 16:48 | 31.99378 | 46.46350 | 38988 ft | 479 kts | 153° |
| 2026-05-07 16:48 | 31.94109 | 46.51152 | 38981 ft | 479 kts | 153° |
| 2026-05-07 16:49 | 31.88839 | 46.55948 | 38971 ft | 479 kts | 153° |
| 2026-05-07 16:49 | 31.83595 | 46.60713 | 38967 ft | 480 kts | 153° |
| 2026-05-07 16:50 | 31.78311 | 46.65508 | 38962 ft | 480 kts | 153° |
| 2026-05-07 16:50 | 31.73017 | 46.70304 | 38955 ft | 481 kts | 153° |
| 2026-05-07 16:51 | 31.67719 | 46.75097 | 38950 ft | 481 kts | 153° |
| 2026-05-07 16:51 | 31.62416 | 46.79888 | 38950 ft | 481 kts | 153° |
| 2026-05-07 16:52 | 31.57141 | 46.84646 | 38946 ft | 482 kts | 153° |
| 2026-05-07 16:52 | 31.51825 | 46.89434 | 38943 ft | 482 kts | 154° |
| 2026-05-07 16:53 | 31.46502 | 46.94221 | 38942 ft | 483 kts | 154° |
| 2026-05-07 16:53 | 31.41170 | 46.99010 | 38942 ft | 483 kts | 154° |
| 2026-05-07 16:54 | 31.35873 | 47.03759 | 38934 ft | 483 kts | 154° |
| 2026-05-07 16:54 | 31.30530 | 47.08544 | 38931 ft | 484 kts | 154° |
| 2026-05-07 16:55 | 31.25186 | 47.13323 | 38932 ft | 484 kts | 154° |
| 2026-05-07 16:55 | 31.19835 | 47.18100 | 38932 ft | 484 kts | 154° |
| 2026-05-07 16:56 | 31.14518 | 47.22840 | 38933 ft | 484 kts | 154° |
| 2026-05-07 16:56 | 31.06474 | 47.29998 | 38921 ft | 485 kts | 154° |
| 2026-05-07 16:57 | 31.01103 | 47.34769 | 38922 ft | 485 kts | 154° |
| 2026-05-07 16:57 | 30.95731 | 47.39534 | 38924 ft | 485 kts | 154° |
| 2026-05-07 16:58 | 30.90358 | 47.44292 | 38919 ft | 486 kts | 154° |
| 2026-05-07 16:58 | 30.85013 | 47.49018 | 38914 ft | 486 kts | 154° |
| 2026-05-07 16:59 | 30.79729 | 47.53997 | 38906 ft | 494 kts | 149° |
| 2026-05-07 16:59 | 30.74661 | 47.59445 | 38896 ft | 497 kts | 148° |
| 2026-05-07 17:00 | 30.69603 | 47.64905 | 38887 ft | 496 kts | 149° |
| 2026-05-07 17:00 | 30.64531 | 47.70254 | 38883 ft | 495 kts | 149° |
| 2026-05-07 17:01 | 30.59400 | 47.75596 | 38884 ft | 496 kts | 150° |
| 2026-05-07 17:01 | 30.54255 | 47.80932 | 38885 ft | 496 kts | 150° |
| 2026-05-07 17:02 | 30.49107 | 47.86267 | 38889 ft | 497 kts | 150° |
| 2026-05-07 17:02 | 30.43955 | 47.91604 | 38897 ft | 497 kts | 150° |
| 2026-05-07 17:03 | 30.38831 | 47.96905 | 38874 ft | 497 kts | 150° |
| 2026-05-07 17:03 | 30.33667 | 48.02238 | 38856 ft | 498 kts | 150° |
| 2026-05-07 17:04 | 30.28487 | 48.07580 | 38845 ft | 499 kts | 150° |
| 2026-05-07 17:04 | 30.23301 | 48.12921 | 38844 ft | 500 kts | 150° |
| 2026-05-07 17:05 | 30.18136 | 48.18233 | 38862 ft | 500 kts | 150° |
| 2026-05-07 17:05 | 30.12933 | 48.23575 | 38865 ft | 501 kts | 151° |
| 2026-05-07 17:06 | 30.07718 | 48.28923 | 38884 ft | 501 kts | 151° |
| 2026-05-07 17:06 | 30.02498 | 48.34267 | 38892 ft | 502 kts | 151° |
| 2026-05-07 17:07 | 29.97277 | 48.39605 | 38886 ft | 502 kts | 151° |
| 2026-05-07 17:07 | 29.92083 | 48.44908 | 38887 ft | 502 kts | 151° |
| 2026-05-07 17:08 | 29.86691 | 48.49839 | 38892 ft | 483 kts | 161° |
| 2026-05-07 17:08 | 29.80874 | 48.53497 | 38890 ft | 474 kts | 165° |
| 2026-05-07 17:09 | 29.74995 | 48.56891 | 38895 ft | 472 kts | 166° |
| 2026-05-07 17:09 | 29.69122 | 48.60244 | 38903 ft | 471 kts | 166° |
| 2026-05-07 17:10 | 29.63296 | 48.63591 | 38897 ft | 471 kts | 165° |
| 2026-05-07 17:10 | 29.57443 | 48.66966 | 38898 ft | 470 kts | 165° |
| 2026-05-07 17:11 | 29.51597 | 48.70339 | 38892 ft | 470 kts | 165° |
| 2026-05-07 17:11 | 29.45752 | 48.73706 | 38889 ft | 470 kts | 165° |
| 2026-05-07 17:12 | 29.39947 | 48.77045 | 38889 ft | 470 kts | 165° |
| 2026-05-07 17:12 | 29.34106 | 48.80409 | 38883 ft | 470 kts | 165° |
| 2026-05-07 17:13 | 29.28266 | 48.83769 | 38887 ft | 470 kts | 165° |
| 2026-05-07 17:13 | 29.22426 | 48.87125 | 38884 ft | 470 kts | 165° |
| 2026-05-07 17:14 | 29.16616 | 48.90459 | 38886 ft | 470 kts | 165° |
| 2026-05-07 17:14 | 29.10768 | 48.93814 | 38884 ft | 471 kts | 165° |
| 2026-05-07 17:15 | 29.04907 | 48.97159 | 38883 ft | 471 kts | 165° |
| 2026-05-07 17:15 | 28.99115 | 49.00778 | 38880 ft | 477 kts | 158° |
| 2026-05-07 17:16 | 28.93308 | 49.04440 | 38881 ft | 477 kts | 159° |
| 2026-05-07 17:16 | 28.87468 | 49.07889 | 38883 ft | 475 kts | 160° |
| 2026-05-07 17:17 | 28.81552 | 49.11300 | 38876 ft | 480 kts | 160° |
| 2026-05-07 17:17 | 28.75598 | 49.14831 | 38872 ft | 483 kts | 159° |
| 2026-05-07 17:18 | 28.69636 | 49.18387 | 38878 ft | 484 kts | 159° |
| 2026-05-07 17:18 | 28.63704 | 49.21906 | 38873 ft | 484 kts | 159° |
| 2026-05-07 17:19 | 28.57731 | 49.25437 | 38878 ft | 484 kts | 159° |
| 2026-05-07 17:19 | 28.51778 | 49.29065 | 38883 ft | 490 kts | 154° |
| 2026-05-07 17:20 | 28.46335 | 49.33883 | 38872 ft | 501 kts | 146° |
| 2026-05-07 17:20 | 28.41085 | 49.39086 | 38872 ft | 506 kts | 144° |
| 2026-05-07 17:21 | 28.35817 | 49.44391 | 38774 ft | 508 kts | 144° |
| 2026-05-07 17:21 | 28.33144 | 49.47066 | 38582 ft | 516 kts | 144° |
| 2026-05-07 17:21 | 28.30439 | 49.49766 | 38526 ft | 519 kts | 144° |
| 2026-05-07 17:22 | 28.25000 | 49.55172 | 38475 ft | 521 kts | 144° |
| 2026-05-07 17:22 | 28.19508 | 49.60515 | 38330 ft | 518 kts | 147° |
| 2026-05-07 17:23 | 28.13831 | 49.65377 | 38282 ft | 514 kts | 149° |
| 2026-05-07 17:23 | 28.08081 | 49.70165 | 37949 ft | 510 kts | 149° |
| 2026-05-07 17:24 | 28.05224 | 49.72571 | 37600 ft | 514 kts | 149° |
| 2026-05-07 17:24 | 28.02350 | 49.74953 | 37175 ft | 510 kts | 150° |
| 2026-05-07 17:24 | 27.99454 | 49.77231 | 36683 ft | 504 kts | 151° |
| 2026-05-07 17:24 | 27.96561 | 49.79444 | 36187 ft | 500 kts | 152° |
| 2026-05-07 17:25 | 27.93676 | 49.81635 | 35707 ft | 500 kts | 151° |
| 2026-05-07 17:25 | 27.90791 | 49.83834 | 35290 ft | 501 kts | 151° |
| 2026-05-07 17:25 | 27.87944 | 49.86021 | 34855 ft | 502 kts | 151° |
| 2026-05-07 17:25 | 27.85067 | 49.88243 | 34421 ft | 500 kts | 150° |
| 2026-05-07 17:26 | 27.82207 | 49.90458 | 33989 ft | 496 kts | 150° |
| 2026-05-07 17:26 | 27.79373 | 49.92654 | 33507 ft | 492 kts | 150° |
| 2026-05-07 17:26 | 27.76561 | 49.94828 | 33030 ft | 488 kts | 150° |
| 2026-05-07 17:26 | 27.73767 | 49.96987 | 32531 ft | 485 kts | 150° |
| 2026-05-07 17:27 | 27.70994 | 49.99127 | 32076 ft | 481 kts | 150° |
| 2026-05-07 17:27 | 27.68237 | 50.01253 | 31610 ft | 478 kts | 149° |
| 2026-05-07 17:27 | 27.65503 | 50.03360 | 31145 ft | 475 kts | 149° |
| 2026-05-07 17:27 | 27.62819 | 50.05427 | 30713 ft | 472 kts | 149° |
| 2026-05-07 17:28 | 27.60119 | 50.07504 | 30273 ft | 469 kts | 149° |
| 2026-05-07 17:28 | 27.57433 | 50.09571 | 29816 ft | 466 kts | 149° |
| 2026-05-07 17:28 | 27.54763 | 50.11624 | 29305 ft | 463 kts | 148° |
| 2026-05-07 17:28 | 27.52115 | 50.13661 | 28799 ft | 459 kts | 148° |
| 2026-05-07 17:29 | 27.49488 | 50.15681 | 28301 ft | 456 kts | 148° |
| 2026-05-07 17:29 | 27.46879 | 50.17685 | 27811 ft | 452 kts | 148° |
| 2026-05-07 17:29 | 27.44326 | 50.19646 | 27343 ft | 449 kts | 148° |
| 2026-05-07 17:29 | 27.41780 | 50.21650 | 26877 ft | 445 kts | 147° |
| 2026-05-07 17:30 | 27.39273 | 50.23682 | 26407 ft | 442 kts | 146° |
| 2026-05-07 17:30 | 27.36796 | 50.25713 | 25951 ft | 439 kts | 146° |
| 2026-05-07 17:30 | 27.34340 | 50.27727 | 25497 ft | 436 kts | 146° |
| 2026-05-07 17:30 | 27.31898 | 50.29724 | 25061 ft | 432 kts | 145° |
| 2026-05-07 17:31 | 27.29470 | 50.31700 | 24625 ft | 429 kts | 145° |
| 2026-05-07 17:31 | 27.27058 | 50.33656 | 24192 ft | 426 kts | 145° |
| 2026-05-07 17:31 | 27.24659 | 50.35596 | 23783 ft | 423 kts | 145° |
| 2026-05-07 17:31 | 27.22309 | 50.37493 | 23329 ft | 420 kts | 144° |
| 2026-05-07 17:32 | 27.19945 | 50.39399 | 22846 ft | 417 kts | 144° |
| 2026-05-07 17:32 | 27.17595 | 50.41291 | 22354 ft | 413 kts | 144° |
| 2026-05-07 17:32 | 27.15277 | 50.43157 | 21864 ft | 408 kts | 144° |
| 2026-05-07 17:32 | 27.13759 | 50.44379 | 21556 ft | 405 kts | 143° |
| 2026-05-07 17:33 | 27.10716 | 50.46831 | 20928 ft | 401 kts | 143° |
| 2026-05-07 17:33 | 27.08458 | 50.48650 | 20570 ft | 398 kts | 144° |
| 2026-05-07 17:33 | 27.06211 | 50.50462 | 20124 ft | 397 kts | 144° |
| 2026-05-07 17:33 | 27.03975 | 50.52263 | 19674 ft | 395 kts | 144° |
| 2026-05-07 17:34 | 27.01782 | 50.54028 | 19244 ft | 392 kts | 144° |
| 2026-05-07 17:34 | 26.99568 | 50.55807 | 18816 ft | 390 kts | 144° |
| 2026-05-07 17:34 | 26.97370 | 50.57575 | 18381 ft | 388 kts | 144° |
| 2026-05-07 17:34 | 26.95247 | 50.59416 | 17952 ft | 385 kts | 140° |
| 2026-05-07 17:35 | 26.93205 | 50.61333 | 17460 ft | 381 kts | 139° |
| 2026-05-07 17:35 | 26.91208 | 50.63265 | 17025 ft | 377 kts | 139° |
| 2026-05-07 17:35 | 26.89230 | 50.65180 | 16866 ft | 375 kts | 139° |
| 2026-05-07 17:35 | 26.87229 | 50.67104 | 16846 ft | 384 kts | 139° |
| 2026-05-07 17:36 | 26.85212 | 50.69021 | 16847 ft | 387 kts | 140° |
| 2026-05-07 17:36 | 26.83158 | 50.70950 | 16850 ft | 381 kts | 140° |
| 2026-05-07 17:36 | 26.81144 | 50.72831 | 16854 ft | 374 kts | 140° |
| 2026-05-07 17:36 | 26.79150 | 50.74692 | 16851 ft | 372 kts | 140° |
| 2026-05-07 17:37 | 26.77162 | 50.76548 | 16849 ft | 372 kts | 140° |
| 2026-05-07 17:37 | 26.75179 | 50.78398 | 16849 ft | 371 kts | 140° |
| 2026-05-07 17:37 | 26.73194 | 50.80249 | 16848 ft | 371 kts | 140° |
| 2026-05-07 17:37 | 26.71214 | 50.82094 | 16848 ft | 371 kts | 140° |
| 2026-05-07 17:38 | 26.69258 | 50.83916 | 16849 ft | 371 kts | 140° |
| 2026-05-07 17:38 | 26.67279 | 50.85759 | 16849 ft | 371 kts | 140° |
| 2026-05-07 17:38 | 26.65296 | 50.87603 | 16851 ft | 371 kts | 140° |
| 2026-05-07 17:38 | 26.63316 | 50.89446 | 16851 ft | 371 kts | 139° |
| 2026-05-07 17:39 | 26.61335 | 50.91288 | 16849 ft | 371 kts | 139° |
| 2026-05-07 17:39 | 26.59350 | 50.93132 | 16851 ft | 371 kts | 139° |
| 2026-05-07 17:39 | 26.57367 | 50.94973 | 16849 ft | 371 kts | 139° |
| 2026-05-07 17:39 | 26.55383 | 50.96813 | 16848 ft | 371 kts | 139° |
| 2026-05-07 17:40 | 26.53421 | 50.98634 | 16849 ft | 371 kts | 139° |
| 2026-05-07 17:40 | 26.51434 | 51.00476 | 16849 ft | 372 kts | 139° |
| 2026-05-07 17:40 | 26.49447 | 51.02319 | 16850 ft | 372 kts | 139° |
| 2026-05-07 17:40 | 26.47455 | 51.04165 | 16848 ft | 372 kts | 139° |
| 2026-05-07 17:41 | 26.45466 | 51.06006 | 16846 ft | 372 kts | 139° |
| 2026-05-07 17:41 | 26.43476 | 51.07847 | 16846 ft | 372 kts | 139° |
| 2026-05-07 17:41 | 26.41485 | 51.09690 | 16844 ft | 372 kts | 139° |